Palm Beach, Florida
Current Conditions -  °F | °C
As of 6:53 AM on Sunday 25 Jan 2015 (Local Time) from KPBI Reporting Station
Few Clouds Few Clouds  
Wind Chill: 43°   Ceiling: Unl
Heat Index: 47°   Visibility: 10mi
Dew Point: 43°   Wind: 9mph
Humidity: 86%   Direction: 320°NW
Pressure: 30.06"   Gusts: NA
Location:  26.7°N, 80.04°W
Report Text: KPBI 251153Z 32008KT 10SM FEW025 08/06 A3006 RMK AO2 SLP180 T00830061 10128 20083 53019
Loading
Personal Weather Stations






























Interactive Weather Map New forecast layout! Learn more

10-Day Weather Forecast

Advertisements
Track Severe Weather on mobile